sensor_id;sensor_type;location;lat;lon;timestamp;pressure;altitude;pressure_sealevel;temperature;humidity
42297;BME280;72430;47.456;19.016;2023-10-19T00:01:17;99913.22;;;9.02;79.19
42297;BME280;72430;47.456;19.016;2023-10-19T00:04:20;99922.66;;;8.96;74.63
42297;BME280;72430;47.456;19.016;2023-10-19T00:07:23;99912.63;;;8.89;78.04
42297;BME280;72430;47.456;19.016;2023-10-19T00:10:27;99912.50;;;9.00;78.44
42297;BME280;72430;47.456;19.016;2023-10-19T00:13:39;99902.19;;;9.15;77.26
42297;BME280;72430;47.456;19.016;2023-10-19T00:16:42;99896.56;;;9.18;77.59
42297;BME280;72430;47.456;19.016;2023-10-19T00:19:46;99895.28;;;9.12;77.94
42297;BME280;72430;47.456;19.016;2023-10-19T00:23:22;99896.13;;;9.23;78.15
42297;BME280;72430;47.456;19.016;2023-10-19T00:26:30;99895.88;;;9.16;77.91
42297;BME280;72430;47.456;19.016;2023-10-19T00:29:32;99883.44;;;9.25;79.09
42297;BME280;72430;47.456;19.016;2023-10-19T00:32:34;99878.63;;;9.29;78.22
42297;BME280;72430;47.456;19.016;2023-10-19T00:35:40;99882.56;;;9.34;78.14
42297;BME280;72430;47.456;19.016;2023-10-19T00:38:49;99883.56;;;9.43;75.87
42297;BME280;72430;47.456;19.016;2023-10-19T00:41:51;99878.47;;;9.40;77.37
42297;BME280;72430;47.456;19.016;2023-10-19T00:44:58;99869.13;;;9.44;74.74
42297;BME280;72430;47.456;19.016;2023-10-19T00:48:08;99870.28;;;9.51;72.67
42297;BME280;72430;47.456;19.016;2023-10-19T00:51:18;99868.56;;;9.60;73.14
42297;BME280;72430;47.456;19.016;2023-10-19T00:54:36;99864.59;;;9.54;71.13
42297;BME280;72430;47.456;19.016;2023-10-19T00:57:49;99845.06;;;9.62;72.90
42297;BME280;72430;47.456;19.016;2023-10-19T01:00:51;99847.44;;;9.75;71.21
42297;BME280;72430;47.456;19.016;2023-10-19T01:03:57;99849.56;;;9.72;72.59
42297;BME280;72430;47.456;19.016;2023-10-19T01:06:59;99847.16;;;9.78;72.61
42297;BME280;72430;47.456;19.016;2023-10-19T01:10:13;99833.28;;;9.73;72.53
42297;BME280;72430;47.456;19.016;2023-10-19T01:13:22;99838.91;;;9.90;71.49
42297;BME280;72430;47.456;19.016;2023-10-19T01:16:30;99844.94;;;9.64;72.26
42297;BME280;72430;47.456;19.016;2023-10-19T01:19:33;99832.47;;;9.63;74.44
42297;BME280;72430;47.456;19.016;2023-10-19T01:22:35;99825.41;;;9.62;74.21
42297;BME280;72430;47.456;19.016;2023-10-19T01:25:44;99838.56;;;9.55;75.11
42297;BME280;72430;47.456;19.016;2023-10-19T01:28:52;99833.38;;;9.44;76.55
42297;BME280;72430;47.456;19.016;2023-10-19T01:32:09;99822.19;;;9.48;78.32
42297;BME280;72430;47.456;19.016;2023-10-19T01:35:12;99815.25;;;9.46;78.31
42297;BME280;72430;47.456;19.016;2023-10-19T01:38:13;99800.53;;;9.50;77.55
42297;BME280;72430;47.456;19.016;2023-10-19T01:41:16;99799.34;;;9.72;76.02
42297;BME280;72430;47.456;19.016;2023-10-19T01:44:20;99801.50;;;9.59;79.92
42297;BME280;72430;47.456;19.016;2023-10-19T01:47:23;99788.06;;;9.59;79.83
42297;BME280;72430;47.456;19.016;2023-10-19T01:50:26;99784.25;;;9.61;80.40
42297;BME280;72430;47.456;19.016;2023-10-19T01:53:29;99779.16;;;9.58;79.24
42297;BME280;72430;47.456;19.016;2023-10-19T01:56:31;99780.03;;;9.39;80.22
42297;BME280;72430;47.456;19.016;2023-10-19T01:59:35;99786.25;;;9.49;80.71
42297;BME280;72430;47.456;19.016;2023-10-19T02:02:37;99784.13;;;9.53;80.62
42297;BME280;72430;47.456;19.016;2023-10-19T02:05:39;99782.88;;;9.47;81.04
42297;BME280;72430;47.456;19.016;2023-10-19T02:08:48;99781.19;;;9.46;83.03
42297;BME280;72430;47.456;19.016;2023-10-19T02:11:54;99775.09;;;9.44;82.78
42297;BME280;72430;47.456;19.016;2023-10-19T02:15:00;99761.66;;;9.44;83.88
42297;BME280;72430;47.456;19.016;2023-10-19T02:18:02;99757.75;;;9.29;83.24
42297;BME280;72430;47.456;19.016;2023-10-19T02:21:04;99757.59;;;9.40;84.99
42297;BME280;72430;47.456;19.016;2023-10-19T02:24:10;99755.88;;;9.39;84.42
42297;BME280;72430;47.456;19.016;2023-10-19T02:27:16;99748.94;;;9.36;86.03
42297;BME280;72430;47.456;19.016;2023-10-19T02:30:33;99743.97;;;9.42;84.27
42297;BME280;72430;47.456;19.016;2023-10-19T02:33:37;99739.88;;;9.47;85.57
42297;BME280;72430;47.456;19.016;2023-10-19T02:36:40;99744.75;;;9.34;86.46
42297;BME280;72430;47.456;19.016;2023-10-19T02:39:42;99737.91;;;9.39;86.01
42297;BME280;72430;47.456;19.016;2023-10-19T02:42:48;99727.84;;;9.51;85.69
42297;BME280;72430;47.456;19.016;2023-10-19T02:45:50;99708.78;;;9.45;85.65
42297;BME280;72430;47.456;19.016;2023-10-19T02:48:53;99712.44;;;9.53;85.57
42297;BME280;72430;47.456;19.016;2023-10-19T02:51:54;99714.44;;;9.51;85.50
42297;BME280;72430;47.456;19.016;2023-10-19T02:54:56;99703.28;;;9.46;86.97
42297;BME280;72430;47.456;19.016;2023-10-19T02:57:58;99710.03;;;9.50;87.51
42297;BME280;72430;47.456;19.016;2023-10-19T03:01:00;99698.53;;;9.58;85.27
42297;BME280;72430;47.456;19.016;2023-10-19T03:04:02;99706.59;;;9.58;85.19
42297;BME280;72430;47.456;19.016;2023-10-19T03:07:07;99699.72;;;9.46;86.81
42297;BME280;72430;47.456;19.016;2023-10-19T03:10:10;99694.31;;;9.56;86.86
42297;BME280;72430;47.456;19.016;2023-10-19T03:13:35;99693.63;;;9.53;85.81
42297;BME280;72430;47.456;19.016;2023-10-19T03:16:38;99688.25;;;9.53;86.54
42297;BME280;72430;47.456;19.016;2023-10-19T03:19:43;99684.41;;;9.56;86.87
42297;BME280;72430;47.456;19.016;2023-10-19T03:22:45;99672.94;;;9.54;86.24
42297;BME280;72430;47.456;19.016;2023-10-19T03:25:56;99667.34;;;9.47;87.98
42297;BME280;72430;47.456;19.016;2023-10-19T03:29:18;99654.72;;;9.58;86.08
42297;BME280;72430;47.456;19.016;2023-10-19T03:32:33;99655.16;;;9.53;87.52
42297;BME280;72430;47.456;19.016;2023-10-19T03:35:38;99647.69;;;9.47;86.82
42297;BME280;72430;47.456;19.016;2023-10-19T03:38:43;99643.56;;;9.52;87.29
42297;BME280;72430;47.456;19.016;2023-10-19T03:41:45;99645.41;;;9.52;87.52
42297;BME280;72430;47.456;19.016;2023-10-19T03:44:47;99644.72;;;9.50;87.39
42297;BME280;72430;47.456;19.016;2023-10-19T03:47:50;99640.97;;;9.61;86.09
42297;BME280;72430;47.456;19.016;2023-10-19T03:50:55;99643.75;;;9.41;87.59
42297;BME280;72430;47.456;19.016;2023-10-19T03:53:58;99645.59;;;9.40;87.21
42297;BME280;72430;47.456;19.016;2023-10-19T03:57:03;99642.44;;;9.45;86.97
42297;BME280;72430;47.456;19.016;2023-10-19T04:00:13;99644.16;;;9.46;87.30
42297;BME280;72430;47.456;19.016;2023-10-19T04:03:20;99632.47;;;9.37;87.90
42297;BME280;72430;47.456;19.016;2023-10-19T04:06:26;99630.28;;;9.51;86.16
42297;BME280;72430;47.456;19.016;2023-10-19T04:09:29;99630.84;;;9.17;88.88
42297;BME280;72430;47.456;19.016;2023-10-19T04:12:31;99622.06;;;9.24;87.71
42297;BME280;72430;47.456;19.016;2023-10-19T04:15:33;99612.16;;;9.25;87.85
42297;BME280;72430;47.456;19.016;2023-10-19T04:18:36;99596.22;;;9.42;86.95
42297;BME280;72430;47.456;19.016;2023-10-19T04:21:40;99606.03;;;9.33;88.21
42297;BME280;72430;47.456;19.016;2023-10-19T04:24:45;99598.69;;;9.35;87.63
42297;BME280;72430;47.456;19.016;2023-10-19T04:27:47;99590.22;;;9.30;88.11
42297;BME280;72430;47.456;19.016;2023-10-19T04:30:51;99586.50;;;9.40;87.73
42297;BME280;72430;47.456;19.016;2023-10-19T04:33:52;99577.97;;;9.45;88.17
42297;BME280;72430;47.456;19.016;2023-10-19T04:36:56;99579.47;;;9.30;88.45
42297;BME280;72430;47.456;19.016;2023-10-19T04:39:59;99573.38;;;9.37;88.24
42297;BME280;72430;47.456;19.016;2023-10-19T04:43:02;99581.44;;;9.37;87.96
42297;BME280;72430;47.456;19.016;2023-10-19T04:46:11;99577.03;;;9.36;88.57
42297;BME280;72430;47.456;19.016;2023-10-19T04:49:13;99567.28;;;9.35;88.54
42297;BME280;72430;47.456;19.016;2023-10-19T04:52:15;99566.06;;;9.30;88.70
42297;BME280;72430;47.456;19.016;2023-10-19T04:55:17;99560.09;;;9.36;87.95
42297;BME280;72430;47.456;19.016;2023-10-19T04:58:20;99561.22;;;9.33;88.21
42297;BME280;72430;47.456;19.016;2023-10-19T05:01:21;99578.53;;;9.21;88.72
42297;BME280;72430;47.456;19.016;2023-10-19T05:04:23;99562.47;;;9.11;89.45
42297;BME280;72430;47.456;19.016;2023-10-19T05:07:26;99571.72;;;8.98;90.26
42297;BME280;72430;47.456;19.016;2023-10-19T05:10:29;99558.75;;;9.22;89.13
42297;BME280;72430;47.456;19.016;2023-10-19T05:13:31;99554.16;;;9.32;88.92
42297;BME280;72430;47.456;19.016;2023-10-19T05:16:34;99558.94;;;9.38;89.13
42297;BME280;72430;47.456;19.016;2023-10-19T05:19:38;99555.84;;;9.33;88.81
42297;BME280;72430;47.456;19.016;2023-10-19T05:22:40;99560.38;;;9.33;89.89
42297;BME280;72430;47.456;19.016;2023-10-19T05:25:42;99561.28;;;9.23;90.28
42297;BME280;72430;47.456;19.016;2023-10-19T05:28:44;99573.34;;;9.09;90.73
42297;BME280;72430;47.456;19.016;2023-10-19T05:31:46;99571.47;;;9.20;90.12
42297;BME280;72430;47.456;19.016;2023-10-19T05:34:48;99549.19;;;9.37;89.30
42297;BME280;72430;47.456;19.016;2023-10-19T05:37:50;99565.38;;;9.18;89.50
42297;BME280;72430;47.456;19.016;2023-10-19T05:40:52;99571.63;;;9.18;91.07
42297;BME280;72430;47.456;19.016;2023-10-19T05:43:54;99557.53;;;9.62;89.49
42297;BME280;72430;47.456;19.016;2023-10-19T05:46:56;99549.91;;;9.58;89.65
42297;BME280;72430;47.456;19.016;2023-10-19T05:50:00;99561.09;;;9.53;89.21
42297;BME280;72430;47.456;19.016;2023-10-19T05:53:03;99553.91;;;9.72;88.09
42297;BME280;72430;47.456;19.016;2023-10-19T05:56:07;99550.13;;;9.64;88.32
42297;BME280;72430;47.456;19.016;2023-10-19T05:59:09;99554.97;;;9.61;88.22
42297;BME280;72430;47.456;19.016;2023-10-19T06:02:11;99553.91;;;9.72;88.22
42297;BME280;72430;47.456;19.016;2023-10-19T06:05:14;99559.66;;;9.77;87.49
42297;BME280;72430;47.456;19.016;2023-10-19T06:08:19;99559.28;;;9.72;88.33
42297;BME280;72430;47.456;19.016;2023-10-19T06:11:21;99553.91;;;9.72;88.27
42297;BME280;72430;47.456;19.016;2023-10-19T06:14:23;99542.22;;;9.63;88.98
42297;BME280;72430;47.456;19.016;2023-10-19T06:17:25;99554.06;;;9.70;88.80
42297;BME280;72430;47.456;19.016;2023-10-19T06:20:27;99552.06;;;9.72;87.73
42297;BME280;72430;47.456;19.016;2023-10-19T06:23:29;99539.81;;;9.88;86.45
42297;BME280;72430;47.456;19.016;2023-10-19T06:26:32;99535.72;;;9.84;88.44
42297;BME280;72430;47.456;19.016;2023-10-19T06:29:34;99532.41;;;9.90;87.85
42297;BME280;72430;47.456;19.016;2023-10-19T06:32:36;99536.41;;;9.86;87.13
42297;BME280;72430;47.456;19.016;2023-10-19T06:35:38;99517.97;;;9.91;86.64
42297;BME280;72430;47.456;19.016;2023-10-19T06:38:41;99532.66;;;9.78;86.43
42297;BME280;72430;47.456;19.016;2023-10-19T06:41:43;99527.84;;;9.54;88.63
42297;BME280;72430;47.456;19.016;2023-10-19T06:44:45;99522.91;;;9.77;88.29
42297;BME280;72430;47.456;19.016;2023-10-19T06:47:49;99519.06;;;9.80;88.84
42297;BME280;72430;47.456;19.016;2023-10-19T06:50:51;99532.03;;;9.85;87.68
42297;BME280;72430;47.456;19.016;2023-10-19T06:53:53;99535.16;;;9.98;87.55
42297;BME280;72430;47.456;19.016;2023-10-19T06:56:55;99513.88;;;9.87;88.84
42297;BME280;72430;47.456;19.016;2023-10-19T06:59:57;99536.34;;;9.77;87.86
42297;BME280;72430;47.456;19.016;2023-10-19T07:02:59;99503.00;;;9.88;87.79
42297;BME280;72430;47.456;19.016;2023-10-19T07:06:03;99506.38;;;9.90;87.54
42297;BME280;72430;47.456;19.016;2023-10-19T07:09:11;99510.59;;;9.75;88.80
42297;BME280;72430;47.456;19.016;2023-10-19T07:12:13;99502.47;;;9.85;88.55
42297;BME280;72430;47.456;19.016;2023-10-19T07:15:15;99504.91;;;9.96;88.55
42297;BME280;72430;47.456;19.016;2023-10-19T07:18:17;99500.06;;;10.00;88.26
42297;BME280;72430;47.456;19.016;2023-10-19T07:21:19;99497.31;;;9.91;87.67
42297;BME280;72430;47.456;19.016;2023-10-19T07:24:22;99500.16;;;9.90;88.37
42297;BME280;72430;47.456;19.016;2023-10-19T07:27:25;99501.75;;;10.01;87.60
42297;BME280;72430;47.456;19.016;2023-10-19T07:30:39;99497.34;;;10.18;87.38
42297;BME280;72430;47.456;19.016;2023-10-19T07:33:42;99491.13;;;10.17;87.23
42297;BME280;72430;47.456;19.016;2023-10-19T07:36:47;99481.38;;;10.16;87.72
42297;BME280;72430;47.456;19.016;2023-10-19T07:39:49;99475.41;;;10.31;88.07
42297;BME280;72430;47.456;19.016;2023-10-19T07:42:54;99469.88;;;10.32;87.62
42297;BME280;72430;47.456;19.016;2023-10-19T07:45:56;99460.84;;;10.42;87.59
42297;BME280;72430;47.456;19.016;2023-10-19T07:48:58;99461.16;;;10.39;87.98
42297;BME280;72430;47.456;19.016;2023-10-19T07:52:02;99469.25;;;10.39;86.80
42297;BME280;72430;47.456;19.016;2023-10-19T07:55:05;99456.31;;;10.42;86.44
42297;BME280;72430;47.456;19.016;2023-10-19T07:58:08;99444.63;;;10.52;87.98
42297;BME280;72430;47.456;19.016;2023-10-19T08:01:10;99456.06;;;10.27;87.72
42297;BME280;72430;47.456;19.016;2023-10-19T08:04:13;99444.31;;;10.55;86.87
42297;BME280;72430;47.456;19.016;2023-10-19T08:07:15;99444.09;;;10.48;86.19
42297;BME280;72430;47.456;19.016;2023-10-19T08:10:20;99445.53;;;10.69;87.21
42297;BME280;72430;47.456;19.016;2023-10-19T08:13:22;99435.91;;;10.58;86.64
42297;BME280;72430;47.456;19.016;2023-10-19T08:16:28;99435.50;;;10.79;86.39
42297;BME280;72430;47.456;19.016;2023-10-19T08:19:30;99437.66;;;10.76;85.43
42297;BME280;72430;47.456;19.016;2023-10-19T08:22:32;99439.69;;;10.73;87.34
42297;BME280;72430;47.456;19.016;2023-10-19T08:25:34;99433.31;;;10.83;86.68
42297;BME280;72430;47.456;19.016;2023-10-19T08:28:56;99429.81;;;10.91;84.80
42297;BME280;72430;47.456;19.016;2023-10-19T08:32:00;99435.34;;;10.89;86.71
42297;BME280;72430;47.456;19.016;2023-10-19T08:35:03;99413.03;;;11.13;86.25
42297;BME280;72430;47.456;19.016;2023-10-19T08:38:06;99428.84;;;11.08;85.47
42297;BME280;72430;47.456;19.016;2023-10-19T08:41:15;99417.78;;;11.20;87.43
42297;BME280;72430;47.456;19.016;2023-10-19T08:44:17;99418.97;;;11.42;85.04
42297;BME280;72430;47.456;19.016;2023-10-19T08:47:20;99402.66;;;11.60;85.36
42297;BME280;72430;47.456;19.016;2023-10-19T08:50:31;99397.28;;;11.60;85.51
42297;BME280;72430;47.456;19.016;2023-10-19T08:53:34;99381.22;;;11.84;85.11
42297;BME280;72430;47.456;19.016;2023-10-19T08:56:42;99387.13;;;12.04;83.28
42297;BME280;72430;47.456;19.016;2023-10-19T08:59:44;99384.41;;;12.20;84.14
42297;BME280;72430;47.456;19.016;2023-10-19T09:02:48;99388.59;;;12.31;83.16
42297;BME280;72430;47.456;19.016;2023-10-19T09:05:50;99373.50;;;12.54;82.66
42297;BME280;72430;47.456;19.016;2023-10-19T09:08:52;99388.31;;;12.66;82.46
42297;BME280;72430;47.456;19.016;2023-10-19T09:11:54;99373.63;;;12.69;81.69
42297;BME280;72430;47.456;19.016;2023-10-19T09:14:56;99376.78;;;12.72;80.75
42297;BME280;72430;47.456;19.016;2023-10-19T09:18:01;99371.78;;;12.93;80.74
42297;BME280;72430;47.456;19.016;2023-10-19T09:21:19;99374.09;;;13.04;80.06
42297;BME280;72430;47.456;19.016;2023-10-19T09:24:27;99369.16;;;13.31;78.53
42297;BME280;72430;47.456;19.016;2023-10-19T09:27:30;99371.75;;;13.24;77.83
42297;BME280;72430;47.456;19.016;2023-10-19T09:30:33;99361.13;;;13.23;77.99
42297;BME280;72430;47.456;19.016;2023-10-19T09:33:35;99364.19;;;13.43;77.94
42297;BME280;72430;47.456;19.016;2023-10-19T09:36:38;99367.13;;;13.56;77.94
42297;BME280;72430;47.456;19.016;2023-10-19T09:39:40;99363.09;;;13.76;78.30
42297;BME280;72430;47.456;19.016;2023-10-19T09:42:47;99353.38;;;13.81;76.75
42297;BME280;72430;47.456;19.016;2023-10-19T09:45:51;99350.63;;;13.90;77.37
42297;BME280;72430;47.456;19.016;2023-10-19T09:48:55;99354.16;;;13.90;74.78
42297;BME280;72430;47.456;19.016;2023-10-19T09:51:57;99335.66;;;13.79;77.13
42297;BME280;72430;47.456;19.016;2023-10-19T09:55:27;99331.75;;;13.96;75.81
42297;BME280;72430;47.456;19.016;2023-10-19T10:02:06;99313.19;;;13.78;75.95
42297;BME280;72430;47.456;19.016;2023-10-19T10:08:45;99298.53;;;14.70;75.15
42297;BME280;72430;47.456;19.016;2023-10-19T10:11:52;99288.06;;;14.45;74.45
42297;BME280;72430;47.456;19.016;2023-10-19T10:15:04;99282.69;;;14.15;73.79
42297;BME280;72430;47.456;19.016;2023-10-19T10:18:15;99272.44;;;13.95;74.45
42297;BME280;72430;47.456;19.016;2023-10-19T10:21:23;99280.44;;;14.03;74.36
42297;BME280;72430;47.456;19.016;2023-10-19T10:24:28;99269.13;;;14.30;75.06
42297;BME280;72430;47.456;19.016;2023-10-19T10:27:30;99270.41;;;14.49;73.90
42297;BME280;72430;47.456;19.016;2023-10-19T10:30:32;99246.75;;;14.58;73.56
42297;BME280;72430;47.456;19.016;2023-10-19T10:33:38;99260.03;;;14.53;73.21
42297;BME280;72430;47.456;19.016;2023-10-19T10:37:02;99243.91;;;14.29;73.20
42297;BME280;72430;47.456;19.016;2023-10-19T10:40:06;99233.94;;;14.30;73.42
42297;BME280;72430;47.456;19.016;2023-10-19T10:43:08;99228.41;;;14.38;74.98
42297;BME280;72430;47.456;19.016;2023-10-19T10:46:09;99225.59;;;14.68;73.37
42297;BME280;72430;47.456;19.016;2023-10-19T10:49:15;99233.75;;;14.90;73.18
42297;BME280;72430;47.456;19.016;2023-10-19T10:55:25;99224.41;;;14.93;73.50
42297;BME280;72430;47.456;19.016;2023-10-19T10:58:28;99208.41;;;14.98;71.43
42297;BME280;72430;47.456;19.016;2023-10-19T11:01:31;99214.03;;;14.74;71.44
42297;BME280;72430;47.456;19.016;2023-10-19T11:04:43;99210.50;;;15.24;73.40
42297;BME280;72430;47.456;19.016;2023-10-19T11:11:09;99172.41;;;19.40;67.82
42297;BME280;72430;47.456;19.016;2023-10-19T11:14:14;99188.41;;;21.15;61.95
42297;BME280;72430;47.456;19.016;2023-10-19T11:17:16;99170.38;;;22.03;52.43
42297;BME280;72430;47.456;19.016;2023-10-19T11:20:23;99184.63;;;22.17;51.43
42297;BME280;72430;47.456;19.016;2023-10-19T11:26:40;99163.91;;;22.84;49.76
42297;BME280;72430;47.456;19.016;2023-10-19T11:30:02;99166.75;;;21.61;49.34
42297;BME280;72430;47.456;19.016;2023-10-19T11:33:08;99172.94;;;20.97;48.49
42297;BME280;72430;47.456;19.016;2023-10-19T11:36:15;99163.47;;;20.69;51.02
42297;BME280;72430;47.456;19.016;2023-10-19T11:39:17;99152.44;;;20.75;49.73
42297;BME280;72430;47.456;19.016;2023-10-19T11:42:19;99151.69;;;20.25;49.83
42297;BME280;72430;47.456;19.016;2023-10-19T11:45:22;99150.34;;;19.79;52.34
42297;BME280;72430;47.456;19.016;2023-10-19T11:48:25;99142.25;;;20.40;51.77
42297;BME280;72430;47.456;19.016;2023-10-19T11:51:27;99145.16;;;20.69;49.89
42297;BME280;72430;47.456;19.016;2023-10-19T11:54:28;99133.03;;;21.60;48.05
42297;BME280;72430;47.456;19.016;2023-10-19T11:57:31;99143.84;;;22.20;48.45
42297;BME280;72430;47.456;19.016;2023-10-19T12:00:34;99146.16;;;22.11;47.57
42297;BME280;72430;47.456;19.016;2023-10-19T12:03:41;99131.41;;;21.24;49.02
42297;BME280;72430;47.456;19.016;2023-10-19T12:06:43;99121.72;;;20.73;49.25
42297;BME280;72430;47.456;19.016;2023-10-19T12:09:47;99119.75;;;21.28;47.70
42297;BME280;72430;47.456;19.016;2023-10-19T12:12:51;99102.41;;;24.64;45.59
42297;BME280;72430;47.456;19.016;2023-10-19T12:16:02;99101.91;;;26.22;39.57
42297;BME280;72430;47.456;19.016;2023-10-19T12:19:06;99096.97;;;26.76;38.21
42297;BME280;72430;47.456;19.016;2023-10-19T12:22:11;99082.56;;;26.12;40.31
42297;BME280;72430;47.456;19.016;2023-10-19T12:25:14;99097.50;;;24.33;41.24
42297;BME280;72430;47.456;19.016;2023-10-19T12:28:18;99096.34;;;22.61;43.34
42297;BME280;72430;47.456;19.016;2023-10-19T12:31:20;99098.13;;;21.68;45.51
42297;BME280;72430;47.456;19.016;2023-10-19T12:34:24;99095.44;;;21.44;46.44
42297;BME280;72430;47.456;19.016;2023-10-19T12:37:25;99081.44;;;20.57;47.99
42297;BME280;72430;47.456;19.016;2023-10-19T12:40:27;99078.22;;;20.48;48.17
42297;BME280;72430;47.456;19.016;2023-10-19T12:43:30;99075.63;;;19.24;51.09
42297;BME280;72430;47.456;19.016;2023-10-19T12:46:32;99089.19;;;19.12;50.60
42297;BME280;72430;47.456;19.016;2023-10-19T12:49:37;99074.13;;;19.28;51.47
42297;BME280;72430;47.456;19.016;2023-10-19T12:52:39;99076.91;;;18.96;51.98
42297;BME280;72430;47.456;19.016;2023-10-19T12:55:42;99076.50;;;18.73;53.34
42297;BME280;72430;47.456;19.016;2023-10-19T12:58:46;99061.94;;;18.86;52.38
42297;BME280;72430;47.456;19.016;2023-10-19T13:01:50;99054.00;;;19.03;53.15
42297;BME280;72430;47.456;19.016;2023-10-19T13:04:56;99052.72;;;19.06;53.52
42297;BME280;72430;47.456;19.016;2023-10-19T13:08:02;99050.72;;;20.00;52.10
42297;BME280;72430;47.456;19.016;2023-10-19T13:11:04;99045.06;;;19.83;51.92
42297;BME280;72430;47.456;19.016;2023-10-19T13:14:18;99030.56;;;20.01;51.74
42297;BME280;72430;47.456;19.016;2023-10-19T13:17:21;99028.53;;;19.28;52.18
42297;BME280;72430;47.456;19.016;2023-10-19T13:20:23;99025.16;;;19.94;51.73
42297;BME280;72430;47.456;19.016;2023-10-19T13:23:25;99028.28;;;19.98;51.96
42297;BME280;72430;47.456;19.016;2023-10-19T13:26:27;99022.13;;;20.03;51.74
42297;BME280;72430;47.456;19.016;2023-10-19T13:29:29;99016.31;;;19.68;52.98
42297;BME280;72430;47.456;19.016;2023-10-19T13:32:38;99030.00;;;19.31;53.28
42297;BME280;72430;47.456;19.016;2023-10-19T13:35:42;99021.81;;;19.12;54.59
42297;BME280;72430;47.456;19.016;2023-10-19T13:38:44;99013.13;;;18.78;54.55
42297;BME280;72430;47.456;19.016;2023-10-19T13:41:46;99023.44;;;18.95;54.54
42297;BME280;72430;47.456;19.016;2023-10-19T13:44:48;99006.84;;;18.77;55.13
42297;BME280;72430;47.456;19.016;2023-10-19T13:47:51;99004.66;;;18.17;56.08
42297;BME280;72430;47.456;19.016;2023-10-19T13:50:56;98998.63;;;18.15;56.45
42297;BME280;72430;47.456;19.016;2023-10-19T13:54:15;98994.56;;;17.92;57.05
42297;BME280;72430;47.456;19.016;2023-10-19T13:57:16;99003.94;;;17.64;57.63
42297;BME280;72430;47.456;19.016;2023-10-19T14:00:20;98993.13;;;17.50;58.93
42297;BME280;72430;47.456;19.016;2023-10-19T14:03:25;98991.31;;;17.37;59.13
42297;BME280;72430;47.456;19.016;2023-10-19T14:06:27;98996.88;;;16.90;61.10
42297;BME280;72430;47.456;19.016;2023-10-19T14:09:29;98986.88;;;16.77;60.94
42297;BME280;72430;47.456;19.016;2023-10-19T14:12:33;98982.94;;;16.59;62.01
42297;BME280;72430;47.456;19.016;2023-10-19T14:15:37;98994.63;;;16.67;61.84
42297;BME280;72430;47.456;19.016;2023-10-19T14:18:39;98985.25;;;16.29;63.34
42297;BME280;72430;47.456;19.016;2023-10-19T14:21:42;98991.94;;;16.46;63.47
42297;BME280;72430;47.456;19.016;2023-10-19T14:24:46;98971.06;;;16.27;64.17
42297;BME280;72430;47.456;19.016;2023-10-19T14:27:50;98975.25;;;16.02;63.98
42297;BME280;72430;47.456;19.016;2023-10-19T14:30:52;98968.09;;;15.88;64.83
42297;BME280;72430;47.456;19.016;2023-10-19T14:33:55;98967.88;;;15.89;64.81
42297;BME280;72430;47.456;19.016;2023-10-19T14:36:59;98979.78;;;15.81;64.97
42297;BME280;72430;47.456;19.016;2023-10-19T14:40:01;98978.50;;;15.64;65.85
42297;BME280;72430;47.456;19.016;2023-10-19T14:43:05;98955.75;;;15.58;66.08
42297;BME280;72430;47.456;19.016;2023-10-19T14:46:06;98960.28;;;15.44;66.40
42297;BME280;72430;47.456;19.016;2023-10-19T14:49:08;98960.28;;;15.44;67.06
42297;BME280;72430;47.456;19.016;2023-10-19T14:52:10;98963.59;;;15.33;67.09
42297;BME280;72430;47.456;19.016;2023-10-19T14:55:13;98955.22;;;15.21;68.64
42297;BME280;72430;47.456;19.016;2023-10-19T14:58:17;98956.84;;;15.08;69.33
42297;BME280;72430;47.456;19.016;2023-10-19T15:01:23;98947.72;;;15.16;69.18
42297;BME280;72430;47.456;19.016;2023-10-19T15:04:27;98944.16;;;15.15;69.71
42297;BME280;72430;47.456;19.016;2023-10-19T15:07:30;98945.88;;;14.74;72.39
42297;BME280;72430;47.456;19.016;2023-10-19T15:10:32;98938.38;;;14.76;72.50
42297;BME280;72430;47.456;19.016;2023-10-19T15:13:34;98937.63;;;14.61;73.53
42297;BME280;72430;47.456;19.016;2023-10-19T15:16:38;98931.53;;;14.87;72.56
42297;BME280;72430;47.456;19.016;2023-10-19T15:19:40;98930.97;;;14.63;73.93
42297;BME280;72430;47.456;19.016;2023-10-19T15:22:43;98934.28;;;14.59;73.25
42297;BME280;72430;47.456;19.016;2023-10-19T15:25:45;98931.94;;;14.49;74.68
42297;BME280;72430;47.456;19.016;2023-10-19T15:28:47;98935.44;;;14.43;74.42
42297;BME280;72430;47.456;19.016;2023-10-19T15:31:50;98929.78;;;14.38;74.75
42297;BME280;72430;47.456;19.016;2023-10-19T15:34:52;98934.59;;;14.42;75.09
42297;BME280;72430;47.456;19.016;2023-10-19T15:37:54;98922.91;;;14.42;74.74
42297;BME280;72430;47.456;19.016;2023-10-19T15:40:57;98913.09;;;14.34;75.87
42297;BME280;72430;47.456;19.016;2023-10-19T15:43:59;98911.84;;;14.08;77.04
42297;BME280;72430;47.456;19.016;2023-10-19T15:47:01;98912.47;;;14.03;76.86
42297;BME280;72430;47.456;19.016;2023-10-19T15:50:03;98910.34;;;13.99;76.54
42297;BME280;72430;47.456;19.016;2023-10-19T15:53:07;98905.13;;;13.97;77.41
42297;BME280;72430;47.456;19.016;2023-10-19T15:56:09;98907.44;;;14.00;77.53
42297;BME280;72430;47.456;19.016;2023-10-19T15:59:11;98902.69;;;14.02;77.46
42297;BME280;72430;47.456;19.016;2023-10-19T16:02:14;98914.66;;;13.93;77.39
42297;BME280;72430;47.456;19.016;2023-10-19T16:05:17;98896.94;;;13.90;78.24
42297;BME280;72430;47.456;19.016;2023-10-19T16:08:19;98905.94;;;13.69;79.41
42297;BME280;72430;47.456;19.016;2023-10-19T16:11:21;98909.41;;;13.85;79.12
42297;BME280;72430;47.456;19.016;2023-10-19T16:14:25;98904.78;;;13.78;80.25
42297;BME280;72430;47.456;19.016;2023-10-19T16:17:27;98903.75;;;13.79;80.12
42297;BME280;72430;47.456;19.016;2023-10-19T16:20:32;98904.19;;;13.83;79.45
42297;BME280;72430;47.456;19.016;2023-10-19T16:23:34;98903.56;;;13.81;80.00
42297;BME280;72430;47.456;19.016;2023-10-19T16:26:39;98904.63;;;13.87;79.49